Glazier, Texas
Current Conditions -  °F | °C
As of 9:55 AM on Friday 31 Oct 2014 (Local Time) from KHHF Reporting Station
Clear Clear  
Wind Chill: 40°   Ceiling: Unl
Heat Index: 45°   Visibility: NA
Dew Point: 36°   Wind: 9mph
Humidity: 71%   Direction: 20°NNE
Pressure: 30.48"   Gusts: NA
Location:  35.8376°N, 100.27°W
Report Text: KHHF 311455Z AUTO 02008KT CLR 07/02 A3048 RMK AO2 T00700021 PWINO
Loading
Personal Weather Stations






























Interactive Weather Map
Tropical Storm Tracking
New forecast layout! Learn more

10-Day Weather Forecast

Advertisements
Track Severe Weather on mobile